Time;durP1;ratioP1;P1;durP2;ratioP2;P2;SDS_P1;SDS_P2;PMS_P1;PMS_P2;Temp;Humidity;BMP_temperature;BMP_pressure;BME280_temperature;BME280_humidity;BME280_pressure;Samples;Min_cycle;Max_cycle;Signal;HPM_P1;HPM_P2
2023/06/09 00:00:18;;;;;;;6.28;5.68;;;17.70;62.30;;;;;;5008908;28;20416;-63
2023/06/09 00:02:44;;;;;;;6.05;5.50;;;17.70;62.40;;;;;;5008999;28;20049;-63
2023/06/09 00:05:11;;;;;;;8.07;5.78;;;17.70;62.40;;;;;;5010686;28;20084;-63
2023/06/09 00:07:37;;;;;;;7.57;5.88;;;17.70;62.40;;;;;;5009752;28;20639;-62
2023/06/09 00:10:04;;;;;;;5.90;5.40;;;17.60;62.50;;;;;;5008041;28;20457;-62
2023/06/09 00:12:30;;;;;;;7.95;6.15;;;17.60;62.80;;;;;;5003431;28;20070;-63
2023/06/09 00:14:56;;;;;;;6.13;5.60;;;17.50;63.10;;;;;;5004160;28;20108;-62
2023/06/09 00:17:24;;;;;;;6.28;5.68;;;17.50;63.30;;;;;;5004060;28;20056;-62
2023/06/09 00:19:52;;;;;;;6.30;5.57;;;17.40;63.60;;;;;;5004467;28;20030;-62
2023/06/09 00:22:19;;;;;;;7.30;5.95;;;17.30;63.50;;;;;;5001907;28;20053;-63
2023/06/09 00:24:45;;;;;;;6.20;5.65;;;17.30;63.80;;;;;;5003746;28;20116;-62
2023/06/09 00:27:11;;;;;;;7.80;6.47;;;17.40;63.90;;;;;;5002479;28;20125;-63
2023/06/09 00:29:36;;;;;;;8.23;5.85;;;17.30;63.60;;;;;;5002219;28;20038;-62
2023/06/09 00:32:03;;;;;;;5.60;5.18;;;17.30;63.40;;;;;;5004345;28;20462;-62
2023/06/09 00:34:28;;;;;;;6.28;5.68;;;17.30;63.50;;;;;;5003249;28;20045;-62
2023/06/09 00:36:54;;;;;;;6.43;5.75;;;17.40;63.70;;;;;;5005896;28;20092;-62
2023/06/09 00:39:19;;;;;;;6.18;5.57;;;17.30;63.50;;;;;;5006870;28;20044;-62
2023/06/09 00:41:45;;;;;;;8.10;5.97;;;17.30;63.50;;;;;;5001791;28;20273;-62
2023/06/09 00:44:12;;;;;;;6.85;6.25;;;17.30;63.40;;;;;;5002812;28;20113;-63
2023/06/09 00:46:38;;;;;;;7.88;6.32;;;17.30;63.40;;;;;;5002095;28;20484;-63
2023/06/09 00:49:04;;;;;;;7.95;6.35;;;17.30;63.60;;;;;;5002647;28;20038;-63
2023/06/09 00:51:34;;;;;;;6.82;6.13;;;17.30;63.70;;;;;;5003859;28;20516;-62
2023/06/09 00:54:00;;;;;;;6.88;6.28;;;17.30;63.90;;;;;;5003354;28;20038;-62
2023/06/09 00:56:26;;;;;;;6.85;6.20;;;17.20;63.60;;;;;;5002165;28;20033;-62
2023/06/09 00:58:51;;;;;;;6.93;6.32;;;17.20;63.90;;;;;;4988667;28;20056;-62
2023/06/09 01:01:17;;;;;;;7.20;6.55;;;17.20;64.00;;;;;;5004801;28;20034;-62
2023/06/09 01:03:46;;;;;;;6.72;6.13;;;17.20;63.90;;;;;;5004313;28;20045;-62
2023/06/09 01:06:26;;;;;;;7.03;6.32;;;17.20;63.80;;;;;;5000159;28;20044;-62
2023/06/09 01:09:01;;;;;;;7.65;6.20;;;17.20;64.10;;;;;;5002624;28;20294;-62
2023/06/09 01:11:40;;;;;;;6.55;5.95;;;17.30;64.30;;;;;;5001849;28;20037;-62
2023/06/09 01:14:13;;;;;;;6.10;5.50;;;17.20;64.30;;;;;;4979451;28;20037;-62
2023/06/09 01:16:47;;;;;;;6.20;5.70;;;17.20;64.00;;;;;;5000912;28;20528;-63
2023/06/09 01:19:27;;;;;;;6.50;5.68;;;17.20;64.10;;;;;;5001468;28;20033;-62
2023/06/09 01:21:55;;;;;;;6.05;5.45;;;17.20;64.10;;;;;;5004578;28;20088;-63
2023/06/09 01:24:50;;;;;;;6.28;5.68;;;17.20;63.90;;;;;;5002330;28;20041;-62
2023/06/09 01:27:18;;;;;;;6.20;5.60;;;17.20;63.80;;;;;;4930875;28;20091;-62
2023/06/09 01:29:44;;;;;;;6.38;5.78;;;17.20;63.60;;;;;;4980493;28;20038;-63
2023/06/09 01:32:14;;;;;;;6.82;5.88;;;17.20;63.70;;;;;;5001345;28;20061;-62
2023/06/09 01:34:41;;;;;;;6.60;6.00;;;17.20;63.90;;;;;;5001856;28;20133;-62
2023/06/09 01:37:07;;;;;;;6.63;6.03;;;17.10;63.90;;;;;;5002898;28;20501;-62
2023/06/09 01:39:33;;;;;;;6.97;6.28;;;17.10;64.10;;;;;;5001918;28;20119;-62
2023/06/09 01:41:59;;;;;;;6.90;6.20;;;17.00;64.20;;;;;;5001796;28;20033;-62
2023/06/09 01:44:24;;;;;;;7.35;6.65;;;16.90;64.30;;;;;;5000252;28;20034;-63
2023/06/09 01:46:50;;;;;;;7.32;6.60;;;16.90;64.60;;;;;;5001246;28;20219;-62
2023/06/09 01:49:21;;;;;;;7.22;6.53;;;16.70;64.80;;;;;;5001783;28;20048;-62
2023/06/09 01:52:05;;;;;;;9.05;6.07;;;16.60;65.50;;;;;;5001893;28;20121;-62
2023/06/09 01:55:00;;;;;;;6.63;6.03;;;16.50;66.00;;;;;;5001431;28;20077;-62
2023/06/09 01:57:25;;;;;;;6.10;5.60;;;16.50;66.40;;;;;;4996158;28;20045;-62
2023/06/09 01:59:55;;;;;;;8.50;6.32;;;16.40;65.30;;;;;;5000798;28;20042;-63
2023/06/09 02:02:24;;;;;;;8.98;6.53;;;16.30;65.90;;;;;;5001261;28;20045;-63
2023/06/09 02:04:52;;;;;;;7.10;6.32;;;16.30;65.90;;;;;;5001227;28;20502;-62
2023/06/09 02:07:21;;;;;;;6.20;5.63;;;16.30;66.00;;;;;;5001429;28;20082;-62
2023/06/09 02:09:47;;;;;;;7.10;6.38;;;16.20;65.90;;;;;;5002538;28;20610;-65
2023/06/09 02:12:13;;;;;;;8.48;6.75;;;16.20;66.10;;;;;;5000534;28;20099;-62
2023/06/09 02:14:40;;;;;;;7.57;6.88;;;16.10;66.40;;;;;;5000852;28;20029;-62
2023/06/09 02:17:08;;;;;;;7.38;6.68;;;16.00;66.90;;;;;;5000348;28;20105;-62
2023/06/09 02:19:37;;;;;;;7.70;6.88;;;15.90;67.30;;;;;;5001833;28;20286;-62
2023/06/09 02:22:07;;;;;;;7.80;6.75;;;15.90;67.70;;;;;;5000362;28;21172;-63
2023/06/09 02:24:33;;;;;;;10.82;6.63;;;15.80;67.70;;;;;;5001664;28;20038;-62
2023/06/09 02:27:00;;;;;;;7.60;6.90;;;15.80;68.00;;;;;;5001174;28;20030;-62
2023/06/09 02:29:26;;;;;;;7.72;6.95;;;15.70;68.00;;;;;;4999218;28;20128;-62
2023/06/09 02:31:56;;;;;;;8.10;7.30;;;15.70;68.30;;;;;;5000988;28;20040;-63
2023/06/09 02:34:22;;;;;;;7.85;7.05;;;15.70;68.70;;;;;;5000174;28;20045;-64
2023/06/09 02:36:52;;;;;;;7.70;7.00;;;15.60;68.40;;;;;;5000190;28;20453;-65
2023/06/09 02:39:21;;;;;;;8.13;7.35;;;15.60;69.60;;;;;;5000873;28;20062;-64
2023/06/09 02:41:48;;;;;;;9.27;8.38;;;15.60;68.80;;;;;;5000506;28;20401;-64
2023/06/09 02:44:13;;;;;;;9.13;8.23;;;15.60;69.00;;;;;;5000165;28;20405;-64
2023/06/09 02:46:40;;;;;;;9.65;8.65;;;15.60;69.10;;;;;;4999619;28;20036;-64
2023/06/09 02:49:06;;;;;;;8.40;7.60;;;15.60;69.30;;;;;;5000522;28;20525;-64
2023/06/09 02:51:32;;;;;;;9.68;8.50;;;15.60;69.30;;;;;;4999082;28;20044;-64
2023/06/09 02:53:57;;;;;;;8.55;7.70;;;15.60;69.30;;;;;;5002591;28;20406;-64
2023/06/09 02:56:23;;;;;;;8.98;8.07;;;15.60;69.20;;;;;;5001131;28;20065;-64
2023/06/09 02:58:50;;;;;;;8.07;7.35;;;15.60;69.20;;;;;;4999708;28;20030;-63
2023/06/09 03:01:19;;;;;;;9.27;8.38;;;15.60;69.20;;;;;;5001313;28;20501;-64
2023/06/09 03:03:45;;;;;;;8.73;7.93;;;15.50;69.10;;;;;;4981155;28;20049;-64
2023/06/09 03:06:13;;;;;;;8.27;7.47;;;15.50;69.10;;;;;;5005052;28;20034;-65
2023/06/09 03:08:40;;;;;;;8.07;7.28;;;15.40;69.30;;;;;;5003518;28;20038;-63
2023/06/09 03:11:05;;;;;;;8.02;7.25;;;15.50;69.50;;;;;;5005014;28;20054;-64
2023/06/09 03:13:31;;;;;;;8.60;7.60;;;15.40;69.40;;;;;;5003961;28;20045;-64
2023/06/09 03:15:57;;;;;;;8.95;8.05;;;15.40;69.40;;;;;;5002116;28;20041;-64
2023/06/09 03:18:22;;;;;;;59.13;8.82;;;15.40;69.30;;;;;;4997292;28;20046;-64
2023/06/09 03:20:50;;;;;;;12.45;8.00;;;15.20;69.40;;;;;;4999884;28;20057;-64
2023/06/09 03:23:16;;;;;;;12.68;7.50;;;15.40;69.60;;;;;;5003056;28;20405;-64
2023/06/09 03:25:42;;;;;;;8.20;7.40;;;15.40;69.90;;;;;;5003986;28;20042;-64
2023/06/09 03:28:08;;;;;;;8.07;7.07;;;15.40;70.00;;;;;;5002578;28;20049;-64
2023/06/09 03:30:33;;;;;;;8.00;7.15;;;15.40;69.90;;;;;;5000676;28;20556;-64
2023/06/09 03:32:59;;;;;;;8.13;7.32;;;15.40;70.00;;;;;;5001934;28;20037;-65
2023/06/09 03:35:24;;;;;;;8.00;7.20;;;15.50;70.10;;;;;;4998550;28;20502;-64
2023/06/09 03:37:50;;;;;;;9.25;7.07;;;15.40;70.20;;;;;;5002382;28;20053;-64
2023/06/09 03:40:15;;;;;;;7.57;6.88;;;15.30;70.20;;;;;;4999951;28;20069;-64
2023/06/09 03:42:41;;;;;;;8.50;6.78;;;15.30;70.20;;;;;;5002216;28;20510;-64
2023/06/09 03:45:07;;;;;;;7.63;6.93;;;15.30;70.40;;;;;;4999841;28;20494;-64
2023/06/09 03:47:33;;;;;;;7.68;6.88;;;15.20;70.60;;;;;;5000200;28;20041;-64
2023/06/09 03:49:58;;;;;;;7.25;6.53;;;15.20;71.40;;;;;;4998606;28;20030;-64
2023/06/09 03:52:26;;;;;;;7.55;6.85;;;15.20;70.60;;;;;;4999461;28;20041;-64
2023/06/09 03:54:52;;;;;;;8.25;7.05;;;15.30;70.90;;;;;;4999544;28;20060;-64
2023/06/09 03:57:17;;;;;;;7.53;6.82;;;15.30;70.70;;;;;;5000418;28;20513;-64
2023/06/09 03:59:43;;;;;;;8.43;7.50;;;15.30;70.80;;;;;;4999276;28;20112;-64
2023/06/09 04:02:09;;;;;;;7.97;7.18;;;15.30;70.90;;;;;;5000654;28;20077;-64
2023/06/09 04:04:35;;;;;;;9.82;7.30;;;15.30;71.00;;;;;;4998008;28;20030;-65
2023/06/09 04:07:00;;;;;;;7.78;7.07;;;15.30;71.10;;;;;;5000036;28;20383;-64
2023/06/09 04:09:27;;;;;;;7.90;7.10;;;15.30;71.10;;;;;;5001213;28;20116;-64
2023/06/09 04:11:52;;;;;;;8.10;7.20;;;15.30;71.20;;;;;;5000542;28;20041;-64
2023/06/09 04:14:18;;;;;;;7.63;6.93;;;15.30;71.30;;;;;;4999477;28;20281;-64
2023/06/09 04:16:45;;;;;;;8.40;7.38;;;15.30;71.60;;;;;;4999492;28;20077;-64
2023/06/09 04:19:10;;;;;;;8.52;7.60;;;15.30;71.80;;;;;;5000212;28;20037;-64
2023/06/09 04:21:38;;;;;;;9.15;7.55;;;15.20;72.10;;;;;;5001024;28;20038;-64
2023/06/09 04:24:03;;;;;;;7.88;7.07;;;15.30;72.50;;;;;;5000582;28;20029;-64
2023/06/09 04:26:32;;;;;;;8.13;7.32;;;15.30;72.60;;;;;;5001706;28;20041;-64
2023/06/09 04:28:58;;;;;;;8.52;7.68;;;15.30;72.70;;;;;;4999337;28;20030;-64
2023/06/09 04:31:23;;;;;;;8.45;7.55;;;15.30;72.80;;;;;;5003913;28;20543;-64
2023/06/09 04:33:51;;;;;;;8.23;6.80;;;15.30;72.90;;;;;;5006797;28;20117;-64
2023/06/09 04:36:17;;;;;;;8.75;7.38;;;15.40;73.00;;;;;;5001177;28;20038;-63
2023/06/09 04:38:45;;;;;;;8.57;7.70;;;15.40;72.80;;;;;;5003079;28;20669;-64
2023/06/09 04:41:11;;;;;;;9.27;7.80;;;15.50;73.20;;;;;;5003362;28;20083;-64
2023/06/09 04:43:39;;;;;;;8.02;7.30;;;15.50;73.30;;;;;;5005432;28;20049;-64
2023/06/09 04:46:08;;;;;;;8.75;7.63;;;15.60;73.50;;;;;;5002166;28;20449;-64
2023/06/09 04:48:34;;;;;;;8.10;7.30;;;15.60;73.70;;;;;;5002250;28;20087;-64
2023/06/09 04:51:01;;;;;;;8.98;8.07;;;15.60;73.70;;;;;;5002151;28;20052;-64
2023/06/09 04:53:28;;;;;;;7.93;7.13;;;15.60;73.80;;;;;;5005310;28;20038;-64
2023/06/09 04:55:53;;;;;;;8.35;7.55;;;15.60;73.90;;;;;;5003856;28;20038;-64
2023/06/09 04:58:19;;;;;;;8.27;7.40;;;15.70;73.90;;;;;;5002184;28;20392;-64
2023/06/09 05:00:45;;;;;;;8.70;7.95;;;15.70;73.90;;;;;;4999453;28;20509;-64
2023/06/09 05:03:13;;;;;;;9.10;8.20;;;15.80;74.00;;;;;;5005691;28;20069;-64
2023/06/09 05:05:40;;;;;;;9.77;8.88;;;15.90;74.10;;;;;;5006867;28;20041;-64
2023/06/09 05:08:05;;;;;;;8.55;7.75;;;15.90;74.20;;;;;;5007209;28;20366;-64
2023/06/09 05:10:31;;;;;;;10.07;8.18;;;16.00;74.20;;;;;;5005536;28;20038;-64
2023/06/09 05:12:57;;;;;;;9.63;8.63;;;16.00;74.20;;;;;;5006441;28;20096;-64
2023/06/09 05:15:23;;;;;;;9.35;8.38;;;16.00;74.40;;;;;;5005625;28;20431;-64
2023/06/09 05:17:49;;;;;;;9.40;8.43;;;16.10;75.40;;;;;;5004670;28;20048;-64
2023/06/09 05:20:15;;;;;;;9.40;8.50;;;16.20;74.60;;;;;;5002199;28;20576;-63
2023/06/09 05:22:41;;;;;;;9.90;8.90;;;16.20;74.60;;;;;;5001895;28;20044;-64
2023/06/09 05:25:10;;;;;;;11.10;8.25;;;16.20;74.60;;;;;;5002185;28;20060;-64
2023/06/09 05:27:36;;;;;;;9.15;8.25;;;16.30;74.50;;;;;;5003336;28;20041;-64
2023/06/09 05:30:02;;;;;;;9.10;8.20;;;16.40;74.50;;;;;;5002281;28;20092;-64
2023/06/09 05:32:28;;;;;;;11.25;7.65;;;16.50;74.40;;;;;;5000188;28;20129;-64
2023/06/09 05:34:53;;;;;;;8.77;7.75;;;16.60;74.20;;;;;;5007374;28;20034;-64
2023/06/09 05:37:19;;;;;;;11.68;8.40;;;16.70;74.00;;;;;;5000665;28;20650;-64
2023/06/09 05:39:44;;;;;;;12.40;8.00;;;16.80;73.90;;;;;;5003659;28;20513;-64
2023/06/09 05:42:10;;;;;;;8.55;7.75;;;16.90;74.00;;;;;;5000258;28;20053;-64
2023/06/09 05:44:36;;;;;;;10.00;7.95;;;16.90;73.80;;;;;;5002515;28;20061;-64
2023/06/09 05:47:02;;;;;;;8.88;7.97;;;17.00;73.70;;;;;;5001234;28;20033;-64
2023/06/09 05:49:27;;;;;;;9.13;7.72;;;17.20;73.60;;;;;;5000746;28;20509;-64
2023/06/09 05:51:53;;;;;;;8.70;7.80;;;17.20;73.30;;;;;;4999131;28;20053;-65
2023/06/09 05:54:19;;;;;;;8.32;7.53;;;17.30;73.40;;;;;;5002077;28;20041;-63
2023/06/09 05:56:48;;;;;;;10.90;8.98;;;17.40;73.10;;;;;;5003744;28;20056;-63
2023/06/09 05:59:14;;;;;;;8.77;7.88;;;17.50;73.20;;;;;;4996923;28;20527;-64
2023/06/09 06:01:41;;;;;;;9.10;8.20;;;17.60;72.90;;;;;;4989629;28;20038;-64
2023/06/09 06:04:07;;;;;;;8.50;7.45;;;17.70;72.80;;;;;;4996448;28;20038;-64
2023/06/09 06:06:33;;;;;;;8.82;7.93;;;17.80;72.60;;;;;;4998252;28;20045;-64
2023/06/09 06:08:58;;;;;;;7.78;7.00;;;17.80;72.50;;;;;;4997079;28;20029;-64
2023/06/09 06:11:25;;;;;;;9.00;8.10;;;17.90;72.10;;;;;;4996737;28;20113;-64
2023/06/09 06:13:50;;;;;;;9.05;8.13;;;18.00;72.00;;;;;;4991067;28;20045;-63
2023/06/09 06:16:16;;;;;;;8.30;7.43;;;18.10;71.80;;;;;;4999275;28;20453;-64
2023/06/09 06:18:42;;;;;;;9.05;7.93;;;18.20;71.60;;;;;;4996507;28;20084;-64
2023/06/09 06:21:07;;;;;;;8.27;7.47;;;18.30;71.40;;;;;;4997830;28;20034;-64
2023/06/09 06:23:33;;;;;;;8.45;7.65;;;18.40;71.40;;;;;;4999976;28;20049;-64
2023/06/09 06:25:59;;;;;;;8.68;7.32;;;18.40;71.60;;;;;;4999917;28;20182;-63
2023/06/09 06:28:25;;;;;;;8.05;7.30;;;18.50;71.20;;;;;;4998575;28;20703;-63
2023/06/09 06:30:50;;;;;;;8.73;7.32;;;18.60;70.90;;;;;;4997280;28;20045;-62
2023/06/09 06:33:16;;;;;;;7.90;6.63;;;18.70;70.70;;;;;;4996170;28;20537;-64
2023/06/09 06:35:42;;;;;;;7.80;6.22;;;18.70;70.70;;;;;;4993747;28;20084;-64
2023/06/09 06:38:07;;;;;;;7.40;6.25;;;18.80;70.60;;;;;;4999394;28;20038;-64
2023/06/09 06:40:33;;;;;;;7.25;6.55;;;18.90;70.40;;;;;;4995869;28;20133;-63
2023/06/09 06:42:59;;;;;;;6.35;5.72;;;19.00;70.00;;;;;;4998518;28;20097;-63
2023/06/09 06:45:26;;;;;;;6.82;6.22;;;19.10;70.00;;;;;;4999940;28;20052;-64
2023/06/09 06:47:53;;;;;;;6.63;6.00;;;19.10;69.80;;;;;;4999750;28;20120;-63
2023/06/09 06:50:18;;;;;;;11.93;6.07;;;19.20;69.70;;;;;;4996470;28;20049;-63
2023/06/09 06:52:45;;;;;;;6.88;5.80;;;19.30;69.30;;;;;;4999306;28;20034;-63
2023/06/09 06:55:11;;;;;;;7.53;6.70;;;19.40;69.00;;;;;;4994909;28;20525;-64
2023/06/09 06:57:38;;;;;;;7.03;6.32;;;19.50;68.80;;;;;;4999500;28;20042;-63
2023/06/09 07:00:12;;;;;;;7.60;6.90;;;19.50;68.80;;;;;;4999409;28;20836;-63
2023/06/09 07:02:38;;;;;;;7.57;6.85;;;19.60;68.80;;;;;;4998732;28;20241;-63
2023/06/09 07:05:06;;;;;;;9.75;6.55;;;19.70;69.50;;;;;;4999244;28;20034;-63
2023/06/09 07:07:32;;;;;;;7.40;6.70;;;19.70;68.50;;;;;;5001546;28;20064;-64
2023/06/09 07:09:57;;;;;;;7.38;6.60;;;19.80;68.50;;;;;;4997759;28;20502;-64
2023/06/09 07:12:23;;;;;;;7.78;6.60;;;19.90;68.30;;;;;;4992526;28;20049;-64
2023/06/09 07:14:49;;;;;;;6.45;5.75;;;19.90;68.30;;;;;;4982177;28;20493;-63
2023/06/09 07:17:14;;;;;;;7.63;6.10;;;20.10;68.40;;;;;;4998683;28;20111;-62
2023/06/09 07:19:40;;;;;;;6.78;6.15;;;20.10;68.40;;;;;;5000065;28;20157;-64
2023/06/09 07:22:06;;;;;;;5.85;5.10;;;20.20;68.10;;;;;;5000416;28;20041;-64
2023/06/09 07:24:31;;;;;;;9.05;5.32;;;20.30;67.60;;;;;;4999885;28;20045;-63
2023/06/09 07:26:57;;;;;;;7.38;4.90;;;20.40;67.40;;;;;;4974433;28;20076;-63
2023/06/09 07:29:22;;;;;;;4.95;4.55;;;20.50;67.10;;;;;;4998893;28;20096;-64
2023/06/09 07:31:48;;;;;;;4.38;3.97;;;20.60;66.70;;;;;;4998290;28;20041;-63
2023/06/09 07:34:14;;;;;;;4.15;3.75;;;20.80;66.50;;;;;;4993373;28;20033;-64
2023/06/09 07:36:40;;;;;;;4.10;3.70;;;20.90;65.70;;;;;;4995355;28;20026;-64
2023/06/09 07:39:06;;;;;;;4.28;3.88;;;21.00;65.50;;;;;;4997185;28;20037;-63
2023/06/09 07:41:31;;;;;;;4.28;3.88;;;21.10;64.90;;;;;;4993195;28;20092;-64
2023/06/09 07:43:58;;;;;;;3.95;3.60;;;21.20;64.80;;;;;;4996675;28;20418;-64
2023/06/09 07:46:24;;;;;;;4.18;3.78;;;21.30;64.60;;;;;;4996660;28;20042;-64
2023/06/09 07:48:50;;;;;;;3.83;3.50;;;21.40;64.40;;;;;;4996098;28;20509;-63
2023/06/09 07:51:16;;;;;;;4.53;3.15;;;21.60;63.90;;;;;;4997130;28;20452;-63
2023/06/09 07:53:42;;;;;;;3.58;3.28;;;21.60;63.30;;;;;;4995858;28;20133;-63
2023/06/09 07:56:08;;;;;;;3.50;3.20;;;21.80;63.00;;;;;;4999213;28;20042;-63
2023/06/09 07:58:34;;;;;;;3.63;2.90;;;21.90;62.40;;;;;;4997405;28;20068;-64
2023/06/09 08:01:00;;;;;;;5.72;3.65;;;22.00;62.00;;;;;;4997881;28;20049;-64
2023/06/09 08:03:28;;;;;;;4.18;3.20;;;22.10;61.70;;;;;;4996263;28;20048;-63
2023/06/09 08:05:55;;;;;;;3.85;3.30;;;22.20;61.60;;;;;;4989655;28;20096;-63
2023/06/09 08:08:20;;;;;;;3.00;2.80;;;22.40;61.20;;;;;;5000778;28;20034;-63
2023/06/09 08:10:46;;;;;;;3.25;2.97;;;22.50;60.80;;;;;;4997309;28;20104;-64
2023/06/09 08:13:15;;;;;;;3.13;2.92;;;22.50;60.20;;;;;;5005602;28;20120;-65
2023/06/09 08:15:40;;;;;;;3.08;2.88;;;22.70;60.00;;;;;;4997999;28;20069;-63
2023/06/09 08:18:06;;;;;;;3.30;3.00;;;22.70;59.70;;;;;;5002052;28;20073;-64
2023/06/09 08:20:32;;;;;;;3.50;2.92;;;22.80;60.50;;;;;;4998977;28;20141;-63
2023/06/09 08:22:57;;;;;;;4.22;2.97;;;23.00;59.20;;;;;;4999831;28;20073;-62
2023/06/09 08:25:24;;;;;;;2.72;2.53;;;23.10;59.00;;;;;;5001540;28;20501;-62
2023/06/09 08:27:49;;;;;;;2.88;2.67;;;23.20;58.70;;;;;;5001490;28;20049;-62
2023/06/09 08:30:15;;;;;;;3.00;2.80;;;23.30;58.40;;;;;;5002873;28;20568;-62
2023/06/09 08:32:41;;;;;;;3.10;2.80;;;23.40;58.20;;;;;;5000548;28;20042;-63
2023/06/09 08:35:07;;;;;;;2.58;2.38;;;23.50;57.60;;;;;;5003738;28;20145;-62
2023/06/09 08:37:33;;;;;;;4.90;2.70;;;23.60;57.40;;;;;;5004091;28;20821;-63
2023/06/09 08:40:00;;;;;;;2.63;2.42;;;23.70;57.60;;;;;;5006308;28;20038;-62
2023/06/09 08:42:28;;;;;;;2.80;2.60;;;23.80;57.30;;;;;;5003619;28;20033;-62
2023/06/09 08:45:04;;;;;;;2.38;2.28;;;23.90;57.00;;;;;;5006667;28;20519;-62
2023/06/09 08:47:32;;;;;;;3.00;2.80;;;24.00;56.60;;;;;;5005953;28;20061;-63
2023/06/09 08:49:59;;;;;;;2.72;2.53;;;24.10;56.40;;;;;;5006735;28;20490;-63
2023/06/09 08:52:25;;;;;;;2.72;2.53;;;24.20;57.00;;;;;;5003529;28;20056;-63
2023/06/09 08:54:52;;;;;;;2.80;2.60;;;24.30;56.20;;;;;;5005017;28;20494;-63
2023/06/09 08:57:18;;;;;;;3.83;2.42;;;24.40;55.90;;;;;;5006447;28;20037;-64
2023/06/09 08:59:47;;;;;;;2.97;2.65;;;24.50;55.80;;;;;;5006479;28;20038;-62
2023/06/09 09:02:13;;;;;;;3.45;2.60;;;24.60;55.30;;;;;;5007238;28;20045;-63
2023/06/09 09:04:39;;;;;;;3.05;2.85;;;24.70;55.30;;;;;;5007024;28;20387;-62
2023/06/09 09:07:09;;;;;;;2.90;2.70;;;24.80;55.00;;;;;;5007203;28;20038;-62
2023/06/09 09:09:35;;;;;;;3.28;2.67;;;24.90;54.50;;;;;;5007794;28;20089;-63
2023/06/09 09:12:04;;;;;;;2.75;2.55;;;25.00;54.30;;;;;;5007162;28;20029;-62
2023/06/09 09:14:30;;;;;;;2.80;2.45;;;25.00;54.00;;;;;;5003891;28;20034;-62
2023/06/09 09:16:56;;;;;;;2.85;2.65;;;25.10;54.00;;;;;;5007869;28;20046;-62
2023/06/09 09:19:28;;;;;;;4.00;2.65;;;25.10;53.90;;;;;;5006807;28;20433;-63
2023/06/09 09:21:56;;;;;;;3.70;2.42;;;25.30;53.50;;;;;;5006935;28;20464;-63
2023/06/09 09:24:29;;;;;;;2.72;2.53;;;25.30;53.50;;;;;;5008934;28;20049;-63
2023/06/09 09:26:58;;;;;;;3.05;2.70;;;25.40;52.70;;;;;;5006155;28;20506;-63
2023/06/09 09:29:28;;;;;;;2.75;2.55;;;25.50;52.60;;;;;;5008075;28;20046;-63
2023/06/09 09:31:58;;;;;;;2.47;2.38;;;25.60;52.30;;;;;;5007354;28;20088;-63
2023/06/09 09:34:26;;;;;;;2.75;2.55;;;25.70;52.00;;;;;;5003251;28;20482;-62
2023/06/09 09:36:55;;;;;;;3.67;2.70;;;25.80;52.20;;;;;;5006255;28;20034;-63
2023/06/09 09:39:21;;;;;;;3.17;2.60;;;25.90;51.80;;;;;;5007397;28;20034;-63
2023/06/09 09:42:07;;;;;;;4.45;2.58;;;25.90;52.10;;;;;;5007725;28;20346;-63
2023/06/09 09:44:40;;;;;;;2.45;2.25;;;26.00;51.30;;;;;;5003482;28;20034;-63
2023/06/09 09:47:08;;;;;;;5.28;2.70;;;26.20;51.70;;;;;;5003192;28;20029;-62
2023/06/09 09:49:34;;;;;;;2.90;2.70;;;26.20;51.70;;;;;;5005318;28;20063;-63
2023/06/09 09:52:00;;;;;;;5.28;2.78;;;26.30;51.50;;;;;;5007153;28;20060;-62
2023/06/09 09:54:27;;;;;;;3.00;2.67;;;26.40;51.50;;;;;;5003427;28;20510;-63
2023/06/09 09:56:58;;;;;;;2.70;2.50;;;26.50;50.70;;;;;;5007156;28;20041;-63
2023/06/09 09:59:25;;;;;;;2.50;2.30;;;26.60;51.10;;;;;;5009253;28;20046;-63
2023/06/09 10:01:54;;;;;;;2.60;2.40;;;26.70;51.50;;;;;;5008583;28;20022;-61
2023/06/09 10:04:23;;;;;;;2.72;2.53;;;26.80;50.30;;;;;;5006473;28;20052;-63
2023/06/09 10:06:53;;;;;;;2.63;2.42;;;26.80;49.80;;;;;;5006708;28;20038;-62
2023/06/09 10:09:23;;;;;;;3.20;2.90;;;26.90;49.50;;;;;;5007102;28;20034;-63
2023/06/09 10:11:52;;;;;;;4.22;2.90;;;27.00;49.60;;;;;;5006544;28;20034;-62
2023/06/09 10:14:20;;;;;;;2.70;2.50;;;27.00;49.60;;;;;;5007831;28;20377;-63
2023/06/09 10:16:46;;;;;;;4.30;2.78;;;27.10;49.60;;;;;;5005472;28;20083;-63
2023/06/09 10:19:13;;;;;;;3.40;2.70;;;27.10;49.90;;;;;;5007699;28;20520;-62
2023/06/09 10:21:41;;;;;;;2.90;2.70;;;27.10;49.60;;;;;;5006254;28;20136;-62
2023/06/09 10:24:07;;;;;;;3.00;2.80;;;27.20;49.00;;;;;;5006982;28;20065;-63
2023/06/09 10:26:36;;;;;;;3.42;2.60;;;27.30;48.90;;;;;;5005958;28;20121;-63
2023/06/09 10:29:09;;;;;;;4.32;2.60;;;27.30;48.60;;;;;;5006599;28;20594;-63
2023/06/09 10:31:41;;;;;;;2.92;2.60;;;27.30;47.80;;;;;;5005728;28;20550;-63
2023/06/09 10:34:08;;;;;;;2.80;2.60;;;27.30;48.00;;;;;;5007308;28;20049;-63
2023/06/09 10:36:37;;;;;;;2.70;2.50;;;27.40;48.60;;;;;;5006542;28;20042;-63
2023/06/09 10:39:18;;;;;;;3.00;2.80;;;27.40;48.90;;;;;;5006184;28;20061;-63
2023/06/09 10:42:08;;;;;;;2.55;2.35;;;27.40;47.70;;;;;;5000820;28;20070;-64
2023/06/09 10:45:09;;;;;;;4.05;2.55;;;27.50;48.50;;;;;;4989556;28;20037;-62
2023/06/09 10:47:47;;;;;;;2.70;2.50;;;27.60;48.10;;;;;;4979703;28;20038;-63
2023/06/09 10:50:22;;;;;;;2.63;2.42;;;27.70;47.60;;;;;;4998435;28;20054;-63
2023/06/09 10:52:55;;;;;;;3.90;2.13;;;27.80;47.10;;;;;;5002480;28;20034;-63
2023/06/09 10:55:24;;;;;;;2.72;2.45;;;27.90;46.60;;;;;;5004955;28;20040;-63
2023/06/09 10:57:55;;;;;;;2.75;2.40;;;27.90;46.60;;;;;;5005655;28;20030;-63
2023/06/09 11:00:21;;;;;;;2.60;2.40;;;27.90;46.40;;;;;;5004144;28;20033;-63
2023/06/09 11:02:52;;;;;;;2.20;2.10;;;28.00;46.40;;;;;;5005179;28;20072;-64
2023/06/09 11:05:20;;;;;;;2.35;2.15;;;28.00;45.90;;;;;;5004521;28;20121;-63
2023/06/09 11:07:51;;;;;;;2.97;2.63;;;28.00;45.00;;;;;;5004697;28;20026;-63
2023/06/09 11:10:17;;;;;;;2.30;2.20;;;28.10;45.30;;;;;;5005492;28;20041;-63
2023/06/09 11:12:44;;;;;;;2.40;2.28;;;28.10;45.90;;;;;;5004487;28;20034;-63
2023/06/09 11:15:10;;;;;;;3.17;2.40;;;28.20;45.90;;;;;;5004067;28;20037;-63
2023/06/09 11:17:52;;;;;;;2.85;2.38;;;28.30;45.80;;;;;;5005112;28;20598;-63
2023/06/09 11:20:23;;;;;;;5.72;2.55;;;28.30;44.90;;;;;;5003124;28;20502;-63
2023/06/09 11:22:48;;;;;;;2.67;2.40;;;28.20;45.40;;;;;;5000129;28;20045;-63
2023/06/09 11:25:17;;;;;;;2.53;2.33;;;28.20;45.60;;;;;;5000043;28;20579;-63
2023/06/09 11:27:45;;;;;;;10.18;3.10;;;28.20;45.10;;;;;;5001538;28;20052;-63
2023/06/09 11:30:14;;;;;;;2.42;2.22;;;28.20;45.70;;;;;;5006309;28;20037;-63
2023/06/09 11:32:46;;;;;;;3.45;2.40;;;28.20;45.10;;;;;;5004738;28;20041;-63
2023/06/09 11:35:30;;;;;;;2.40;2.20;;;28.20;45.20;;;;;;5006601;28;20448;-63
2023/06/09 11:37:58;;;;;;;2.55;2.38;;;28.20;44.60;;;;;;5006352;28;20057;-63
2023/06/09 11:40:29;;;;;;;2.50;2.30;;;28.20;45.00;;;;;;5004366;28;20572;-63
2023/06/09 11:42:57;;;;;;;3.13;2.40;;;28.30;44.80;;;;;;5005543;28;20042;-63
2023/06/09 11:45:30;;;;;;;2.60;2.40;;;28.30;44.20;;;;;;5005332;28;20042;-63
2023/06/09 11:47:57;;;;;;;2.80;2.00;;;28.20;43.30;;;;;;5003412;28;20045;-63
2023/06/09 11:50:24;;;;;;;2.57;2.37;;;28.20;43.80;;;;;;4965453;28;1065503;-63
2023/06/09 11:53:17;;;;;;;2.65;2.45;;;28.20;44.10;;;;;;5001136;28;20482;-63
2023/06/09 11:55:43;;;;;;;2.42;2.22;;;28.20;43.50;;;;;;5002995;28;20038;-63
2023/06/09 11:58:12;;;;;;;2.20;2.10;;;28.20;44.00;;;;;;5005099;28;20113;-63
2023/06/09 12:00:39;;;;;;;2.95;2.70;;;28.20;44.20;;;;;;4999784;28;20038;-63
2023/06/09 12:03:06;;;;;;;2.63;2.42;;;28.20;44.10;;;;;;5003665;28;20042;-63
2023/06/09 12:05:32;;;;;;;2.85;2.58;;;28.20;44.00;;;;;;5001507;28;20038;-63
2023/06/09 12:08:00;;;;;;;2.30;2.15;;;28.20;43.90;;;;;;5005488;28;20034;-63
2023/06/09 12:10:29;;;;;;;2.47;2.35;;;28.30;44.10;;;;;;5005574;28;20051;-63
2023/06/09 12:12:59;;;;;;;2.20;2.08;;;28.30;43.80;;;;;;5003828;28;20026;-63
2023/06/09 12:15:26;;;;;;;2.58;2.38;;;28.30;44.20;;;;;;5006061;28;20045;-63
2023/06/09 12:17:57;;;;;;;2.58;2.38;;;28.40;43.70;;;;;;5005161;28;20034;-63
2023/06/09 12:20:30;;;;;;;3.20;2.42;;;28.40;43.50;;;;;;5006328;28;20087;-62
2023/06/09 12:23:01;;;;;;;3.17;2.55;;;28.50;43.40;;;;;;5005762;28;20091;-63
2023/06/09 12:25:31;;;;;;;2.92;2.45;;;28.50;43.20;;;;;;5007146;28;20049;-64
2023/06/09 12:28:17;;;;;;;2.50;2.40;;;28.50;43.20;;;;;;5008010;28;20437;-63
2023/06/09 12:30:53;;;;;;;2.63;2.40;;;28.50;43.00;;;;;;5006682;28;20044;-64
2023/06/09 12:33:23;;;;;;;2.58;2.28;;;28.50;43.00;;;;;;5007317;28;20065;-64
2023/06/09 12:35:53;;;;;;;2.78;2.58;;;28.50;43.20;;;;;;5003396;28;20724;-63
2023/06/09 12:38:23;;;;;;;2.40;2.20;;;28.50;42.90;;;;;;5006431;28;20125;-63
2023/06/09 12:40:50;;;;;;;2.65;2.45;;;28.50;43.50;;;;;;5005835;28;20042;-63
2023/06/09 12:43:17;;;;;;;2.67;2.28;;;28.40;43.50;;;;;;5005589;28;20041;-63
2023/06/09 12:45:44;;;;;;;3.58;2.80;;;28.50;44.00;;;;;;5006271;28;20042;-64
2023/06/09 12:48:10;;;;;;;2.85;2.38;;;28.50;43.40;;;;;;5005797;28;20061;-63